Island Trader — P3XJ8 — position and weather

sailwx.info

Track history (hours):
 
Tides and Currents Weather Stations Pressure Air Temp Water Temp Dewpoint Dewpoint Depression Visibility Wind Speed Wind Dir Waves Ship Positions

Island Trader

Last reported at 2017-Sep-26 09:00 UTC. Time now 2017-Sep-26 09:30 UTC.
Position N 34°40' E 033°03'.

Length 77 m; draft 5.3 m.

Type: Tanker. MMSI: 210282000.

Date/timePositionNaut miles runAvg speedWind from/ knotsBaromVisibWave heightAir tempDewpointWater temp
2017-Sep-26 09:00N 34°40' E 033°03'0 0.0
2017-Sep-26 04:37N 34°40' E 033°03'0 0.0
2017-Sep-26 01:40N 34°40' E 033°03'0 0.0
2017-Sep-26 01:28N 34°40' E 033°03'0 0.0
2017-Sep-26 00:58N 34°40' E 033°03'0 0.0
2017-Sep-26 00:25N 34°40' E 033°03'0 0.0
2017-Sep-25 23:58N 34°40' E 033°03'0 0.0
2017-Sep-25 23:19N 34°40' E 033°03'0 0.0
2017-Sep-25 22:58N 34°40' E 033°03'0 0.0
2017-Sep-25 22:28N 34°40' E 033°03'0 0.0
2017-Sep-25 21:55N 34°40' E 033°03'0 0.0
2017-Sep-25 21:25N 34°40' E 033°03'0 0.0
2017-Sep-25 20:58N 34°40' E 033°03'0 0.0
2017-Sep-25 20:28N 34°40' E 033°03'0 0.0
2017-Sep-25 19:55N 34°40' E 033°03'0 0.0
2017-Sep-25 19:19N 34°40' E 033°03'0 0.1
2017-Sep-25 18:52N 34°40' E 033°03'0 0.0
2017-Sep-25 15:32N 34°40' E 033°03'0 0.4
2017-Sep-25 15:30N 34°40' E 033°03'1 0.1
2017-Sep-25 08:50N 34°40' E 033°04'2 5.7
2017-Sep-25 08:30N 34°39' E 033°02'1 2.1
2017-Sep-25 08:00N 34°39' E 033°01'0 0.0
2017-Sep-25 07:30N 34°39' E 033°01'0 0.0
2017-Sep-25 06:59N 34°39' E 033°01'0 0.0
2017-Sep-25 06:30N 34°39' E 033°01'0 0.0
2017-Sep-25 06:00N 34°39' E 033°01'0 0.0
2017-Sep-25 05:30N 34°39' E 033°01'1 1.8
2017-Sep-25 05:00N 34°39' E 033°02'1 1.4
2017-Sep-25 04:30N 34°40' E 033°03'1 1.4
2017-Sep-25 03:54N 34°40' E 033°03'0 0.0
2017-Sep-25 03:25N 34°40' E 033°03'0 0.0
2017-Sep-25 02:50N 34°40' E 033°03'0 0.0
2017-Sep-25 02:26N 34°40' E 033°03'0 0.0
2017-Sep-25 00:37N 34°40' E 033°03'0 0.0
2017-Sep-25 00:14N 34°40' E 033°03'0 0.0
2017-Sep-24 20:44N 34°40' E 033°03'0 0.0
2017-Sep-24 16:16N 34°40' E 033°04'0 0.0
2017-Sep-24 05:34N 34°40' E 033°03'0 0.1
2017-Sep-24 05:28N 34°40' E 033°03'  
2017-Sep-20 15:29N 34°41' E 033°04'1 1.1
2017-Sep-20 15:00N 34°40' E 033°04'0 0.0
2017-Sep-20 13:05N 34°40' E 033°03'0 0.2
2017-Sep-20 12:42N 34°40' E 033°04'0 0.0
2017-Sep-20 12:20N 34°40' E 033°04'0 0.0
2017-Sep-20 11:59N 34°40' E 033°04'1 2.3
2017-Sep-20 11:30N 34°39' E 033°03'2 3.1
2017-Sep-20 11:00N 34°39' E 033°01'0 0.0
2017-Sep-20 10:13N 34°39' E 033°01'0 0.0
2017-Sep-20 09:56N 34°39' E 033°01'0 0.0
2017-Sep-20 09:30N 34°39' E 033°01'0 0.0
2017-Sep-20 09:00N 34°39' E 033°01'0 0.0
2017-Sep-20 08:30N 34°39' E 033°01'0 0.0
2017-Sep-20 07:59N 34°39' E 033°01'0 0.0
2017-Sep-20 07:30N 34°39' E 033°01'0 0.0
2017-Sep-20 07:00N 34°39' E 033°01'0 0.0
2017-Sep-20 06:30N 34°39' E 033°01'2 4.1
2017-Sep-20 06:00N 34°40' E 033°03'0 0.0
2017-Sep-19 14:47N 34°40' E 033°03'0 0.0
2017-Sep-19 13:52N 34°40' E 033°03'0 0.0
2017-Sep-19 11:25N 34°40' E 033°03'0 0.0
2017-Sep-19 03:19N 34°40' E 033°03'0 0.0
2017-Sep-19 02:43N 34°40' E 033°03'0 0.0
2017-Sep-19 02:25N 34°40' E 033°03'0 0.0
2017-Sep-18 21:37N 34°40' E 033°03'0 0.0
2017-Sep-18 21:19N 34°40' E 033°03'0 0.0
2017-Sep-18 20:58N 34°40' E 033°03'0 0.0
2017-Sep-18 18:37N 34°40' E 033°03'1 0.1
2017-Sep-18 04:42N 34°41' E 033°04'1 2.4
2017-Sep-18 04:25N 34°40' E 033°04'2 5.2
2017-Sep-18 04:00N 34°39' E 033°01'0 0.6
2017-Sep-18 03:30N 34°39' E 033°01'0 0.0
2017-Sep-18 03:00N 34°39' E 033°01'0 0.0
2017-Sep-18 02:30N 34°39' E 033°01'0 0.0
2017-Sep-18 02:00N 34°39' E 033°01'0 0.0
2017-Sep-18 01:30N 34°39' E 033°01'0 0.0
2017-Sep-18 01:00N 34°39' E 033°01'0 0.0
2017-Sep-18 00:30N 34°39' E 033°01'0 0.0
2017-Sep-18 00:00N 34°39' E 033°01'0 0.0
2017-Sep-17 23:30N 34°39' E 033°01'0 0.0
2017-Sep-17 23:00N 34°39' E 033°01'0 0.1
2017-Sep-17 22:30N 34°39' E 033°01'2 3.2
2017-Sep-17 22:00N 34°40' E 033°03'1 0.1
2017-Sep-17 10:30N 34°40' E 033°04'0 0.0
2017-Sep-17 01:49N 34°40' E 033°03'0 0.0
2017-Sep-17 00:11N 34°40' E 033°04'0 1.0
2017-Sep-16 23:59N 34°40' E 033°03'2 4.3
2017-Sep-16 23:30N 34°39' E 033°01'0 0.0
2017-Sep-16 23:01N 34°39' E 033°01'0 0.0
2017-Sep-16 22:30N 34°39' E 033°01'0 0.0
2017-Sep-16 22:00N 34°39' E 033°01'0 0.0
2017-Sep-16 21:30N 34°39' E 033°01'0 0.0
2017-Sep-16 21:00N 34°39' E 033°01'0 0.0
2017-Sep-16 20:31N 34°39' E 033°01'0 0.0
2017-Sep-16 20:00N 34°39' E 033°01'0 0.0
2017-Sep-16 19:30N 34°39' E 033°01'0 0.0
2017-Sep-16 19:01N 34°39' E 033°01'0 0.0
2017-Sep-16 18:31N 34°39' E 033°01'0 0.0
2017-Sep-16 18:01N 34°39' E 033°01'0 0.0
2017-Sep-16 17:31N 34°39' E 033°01'0 0.0
2017-Sep-16 17:00N 34°39' E 033°01'1 1.4
2017-Sep-16 16:30N 34°39' E 033°02'  
Track history (hours):
 
Tides and Currents Weather Stations Pressure Air Temp Water Temp Dewpoint Dewpoint Depression Visibility Wind Speed Wind Dir Waves Ship Positions

Island Trader

Last reported at 2017-Sep-26 09:00 UTC. Time now 2017-Sep-26 09:30 UTC.
Position N 34°40' E 033°03'.

Length 77 m; draft 5.3 m.

Type: Tanker. MMSI: 210282000.

Date/timePositionNaut miles runAvg speedWind from/ knotsBaromVisibWave heightAir tempDewpointWater temp
2017-Sep-26 09:00N 34°40' E 033°03'0 0.0
2017-Sep-26 04:37N 34°40' E 033°03'0 0.0
2017-Sep-26 01:40N 34°40' E 033°03'0 0.0
2017-Sep-26 01:28N 34°40' E 033°03'0 0.0
2017-Sep-26 00:58N 34°40' E 033°03'0 0.0
2017-Sep-26 00:25N 34°40' E 033°03'0 0.0
2017-Sep-25 23:58N 34°40' E 033°03'0 0.0
2017-Sep-25 23:19N 34°40' E 033°03'0 0.0
2017-Sep-25 22:58N 34°40' E 033°03'0 0.0
2017-Sep-25 22:28N 34°40' E 033°03'0 0.0
2017-Sep-25 21:55N 34°40' E 033°03'0 0.0
2017-Sep-25 21:25N 34°40' E 033°03'0 0.0
2017-Sep-25 20:58N 34°40' E 033°03'0 0.0
2017-Sep-25 20:28N 34°40' E 033°03'0 0.0
2017-Sep-25 19:55N 34°40' E 033°03'0 0.0
2017-Sep-25 19:19N 34°40' E 033°03'0 0.1
2017-Sep-25 18:52N 34°40' E 033°03'0 0.0
2017-Sep-25 15:32N 34°40' E 033°03'0 0.4
2017-Sep-25 15:30N 34°40' E 033°03'1 0.1
2017-Sep-25 08:50N 34°40' E 033°04'2 5.7
2017-Sep-25 08:30N 34°39' E 033°02'1 2.1
2017-Sep-25 08:00N 34°39' E 033°01'0 0.0
2017-Sep-25 07:30N 34°39' E 033°01'0 0.0
2017-Sep-25 06:59N 34°39' E 033°01'0 0.0
2017-Sep-25 06:30N 34°39' E 033°01'0 0.0
2017-Sep-25 06:00N 34°39' E 033°01'0 0.0
2017-Sep-25 05:30N 34°39' E 033°01'1 1.8
2017-Sep-25 05:00N 34°39' E 033°02'1 1.4
2017-Sep-25 04:30N 34°40' E 033°03'1 1.4
2017-Sep-25 03:54N 34°40' E 033°03'0 0.0
2017-Sep-25 03:25N 34°40' E 033°03'0 0.0
2017-Sep-25 02:50N 34°40' E 033°03'0 0.0
2017-Sep-25 02:26N 34°40' E 033°03'0 0.0
2017-Sep-25 00:37N 34°40' E 033°03'0 0.0
2017-Sep-25 00:14N 34°40' E 033°03'0 0.0
2017-Sep-24 20:44N 34°40' E 033°03'0 0.0
2017-Sep-24 16:16N 34°40' E 033°04'0 0.0
2017-Sep-24 05:34N 34°40' E 033°03'0 0.1
2017-Sep-24 05:28N 34°40' E 033°03'  
2017-Sep-20 15:29N 34°41' E 033°04'1 1.1
2017-Sep-20 15:00N 34°40' E 033°04'0 0.0
2017-Sep-20 13:05N 34°40' E 033°03'0 0.2
2017-Sep-20 12:42N 34°40' E 033°04'0 0.0
2017-Sep-20 12:20N 34°40' E 033°04'0 0.0
2017-Sep-20 11:59N 34°40' E 033°04'1 2.3
2017-Sep-20 11:30N 34°39' E 033°03'2 3.1
2017-Sep-20 11:00N 34°39' E 033°01'0 0.0
2017-Sep-20 10:13N 34°39' E 033°01'0 0.0
2017-Sep-20 09:56N 34°39' E 033°01'0 0.0
2017-Sep-20 09:30N 34°39' E 033°01'0 0.0
2017-Sep-20 09:00N 34°39' E 033°01'0 0.0
2017-Sep-20 08:30N 34°39' E 033°01'0 0.0
2017-Sep-20 07:59N 34°39' E 033°01'0 0.0
2017-Sep-20 07:30N 34°39' E 033°01'0 0.0
2017-Sep-20 07:00N 34°39' E 033°01'0 0.0
2017-Sep-20 06:30N 34°39' E 033°01'2 4.1
2017-Sep-20 06:00N 34°40' E 033°03'0 0.0
2017-Sep-19 14:47N 34°40' E 033°03'0 0.0
2017-Sep-19 13:52N 34°40' E 033°03'0 0.0
2017-Sep-19 11:25N 34°40' E 033°03'0 0.0
2017-Sep-19 03:19N 34°40' E 033°03'0 0.0
2017-Sep-19 02:43N 34°40' E 033°03'0 0.0
2017-Sep-19 02:25N 34°40' E 033°03'0 0.0
2017-Sep-18 21:37N 34°40' E 033°03'0 0.0
2017-Sep-18 21:19N 34°40' E 033°03'0 0.0
2017-Sep-18 20:58N 34°40' E 033°03'0 0.0
2017-Sep-18 18:37N 34°40' E 033°03'1 0.1
2017-Sep-18 04:42N 34°41' E 033°04'1 2.4
2017-Sep-18 04:25N 34°40' E 033°04'2 5.2
2017-Sep-18 04:00N 34°39' E 033°01'0 0.6
2017-Sep-18 03:30N 34°39' E 033°01'0 0.0
2017-Sep-18 03:00N 34°39' E 033°01'0 0.0
2017-Sep-18 02:30N 34°39' E 033°01'0 0.0
2017-Sep-18 02:00N 34°39' E 033°01'0 0.0
2017-Sep-18 01:30N 34°39' E 033°01'0 0.0
2017-Sep-18 01:00N 34°39' E 033°01'0 0.0
2017-Sep-18 00:30N 34°39' E 033°01'0 0.0
2017-Sep-18 00:00N 34°39' E 033°01'0 0.0
2017-Sep-17 23:30N 34°39' E 033°01'0 0.0
2017-Sep-17 23:00N 34°39' E 033°01'0 0.1
2017-Sep-17 22:30N 34°39' E 033°01'2 3.2
2017-Sep-17 22:00N 34°40' E 033°03'1 0.1
2017-Sep-17 10:30N 34°40' E 033°04'0 0.0
2017-Sep-17 01:49N 34°40' E 033°03'0 0.0
2017-Sep-17 00:11N 34°40' E 033°04'0 1.0
2017-Sep-16 23:59N 34°40' E 033°03'2 4.3
2017-Sep-16 23:30N 34°39' E 033°01'0 0.0
2017-Sep-16 23:01N 34°39' E 033°01'0 0.0
2017-Sep-16 22:30N 34°39' E 033°01'0 0.0
2017-Sep-16 22:00N 34°39' E 033°01'0 0.0
2017-Sep-16 21:30N 34°39' E 033°01'0 0.0
2017-Sep-16 21:00N 34°39' E 033°01'0 0.0
2017-Sep-16 20:31N 34°39' E 033°01'0 0.0
2017-Sep-16 20:00N 34°39' E 033°01'0 0.0
2017-Sep-16 19:30N 34°39' E 033°01'0 0.0
2017-Sep-16 19:01N 34°39' E 033°01'0 0.0
2017-Sep-16 18:31N 34°39' E 033°01'0 0.0
2017-Sep-16 18:01N 34°39' E 033°01'0 0.0
2017-Sep-16 17:31N 34°39' E 033°01'0 0.0
2017-Sep-16 17:00N 34°39' E 033°01'1 1.4
2017-Sep-16 16:30N 34°39' E 033°02'  

Dump ship's entire track history